Nurata, Uzbekistan
Current Conditions -  °F | °C
As of 9:00 PM on Thursday 30 Oct 2014 (Local Time) from UTSA Reporting Station
Haze Haze  
Wind Chill: 36°   Ceiling: Unl
Heat Index: 36°   Visibility: 2.5mi
Dew Point: 28°   Wind: 0mph
Humidity: 75%   Direction: NA
Pressure: 30.36"   Gusts: NA
Location:  40.56°N, 65.68°E
Report Text: UTSA 301600Z 00000MPS 4000 BR NSC 02/M02 Q1028 R07/CLRD70NOSIG
Loading
Personal Weather Stations






























Interactive Weather Map
Tropical Storm Tracking
New forecast layout! Learn more

10-Day Weather Forecast

Advertisements
Track Severe Weather on mobile